FVCN weather

Centenary Airport
Mashonaland Central Province, Zimbabwe

Public forecast

Using degrees Celsius for public forecast. Weather courtesy of forecast.io.

METAR (pilot weather report)

Closest report is Robert Gabriel Mugabe International Airport, 71.9 nm (133.2 km) S. Retrieved 2019/05/25 04:00 UTC (20 minutes ago):

FVRG 250400Z 17007KT 9999 OVC008 12/11 Q1028 NOSIG

TAF (pilot weather forecast)

Forecast is more than 12 hours old.

Closest forecast is Robert Gabriel Mugabe International Airport, 71.9 nm (133.2 km) S. Retrieved 2019/05/24 12:00 UTC (16 hours ago):

TAF FVRG 241000Z 2412/2518 10008KT CAVOK